Time;durP1;ratioP1;P1;durP2;ratioP2;P2;SDS_P1;SDS_P2;PMS_P1;PMS_P2;Temp;Humidity;BMP_temperature;BMP_pressure;BME280_temperature;BME280_humidity;BME280_pressure;Samples;Min_cycle;Max_cycle;Signal;HPM_P1;HPM_P2
2022/03/04 00:01:56;;;;;;;10.03;6.47;;;4.90;91.20;;;;;;5034344;28;20884;-67
2022/03/04 00:04:22;;;;;;;12.97;7.60;;;4.90;91.00;;;;;;5028923;28;20474;-68
2022/03/04 00:06:48;;;;;;;15.20;7.90;;;4.80;91.00;;;;;;5031334;28;20477;-68
2022/03/04 00:09:15;;;;;;;13.10;7.40;;;4.80;90.80;;;;;;5022611;28;20514;-68
2022/03/04 00:11:41;;;;;;;13.07;6.47;;;4.70;91.10;;;;;;5014387;28;20463;-66
2022/03/04 00:14:08;;;;;;;13.43;8.50;;;4.60;91.00;;;;;;5013610;28;20459;-68
2022/03/04 00:16:35;;;;;;;14.43;7.73;;;4.60;91.20;;;;;;5032082;28;20443;-67
2022/03/04 00:19:07;;;;;;;12.00;6.37;;;4.60;91.20;;;;;;5026124;28;20555;-69
2022/03/04 00:21:51;;;;;;;10.50;6.13;;;4.60;91.30;;;;;;5027323;28;20982;-68
2022/03/04 00:24:18;;;;;;;13.97;8.17;;;4.60;91.00;;;;;;5001238;28;20956;-67
2022/03/04 00:26:45;;;;;;;11.77;6.30;;;4.50;91.20;;;;;;5026432;28;20803;-67
2022/03/04 00:29:12;;;;;;;14.33;6.77;;;4.50;91.30;;;;;;5031118;28;20478;-68
2022/03/04 00:31:39;;;;;;;15.10;7.57;;;4.40;90.90;;;;;;4996171;28;20529;-67
2022/03/04 00:34:06;;;;;;;11.90;6.63;;;4.30;91.20;;;;;;5013720;28;20469;-68
2022/03/04 00:36:36;;;;;;;16.50;8.17;;;4.30;91.20;;;;;;5019834;28;20496;-68
2022/03/04 00:39:07;;;;;;;10.53;6.13;;;4.30;91.30;;;;;;5031576;28;20511;-68
2022/03/04 00:41:33;;;;;;;14.80;7.83;;;4.30;91.70;;;;;;5010703;28;20468;-68
2022/03/04 00:43:58;;;;;;;15.63;6.07;;;4.40;91.20;;;;;;5024389;28;20558;-67
2022/03/04 00:46:24;;;;;;;14.90;8.00;;;4.40;91.50;;;;;;5007280;28;20307;-68
2022/03/04 00:48:50;;;;;;;12.57;7.37;;;4.40;91.40;;;;;;5029677;28;20232;-67
2022/03/04 00:51:16;;;;;;;11.57;7.17;;;4.40;91.40;;;;;;5031956;28;20294;-68
2022/03/04 00:53:42;;;;;;;14.07;8.00;;;4.40;91.40;;;;;;5014790;28;20238;-69
2022/03/04 00:56:10;;;;;;;12.80;6.77;;;4.40;91.40;;;;;;5024021;28;20533;-68
2022/03/04 00:58:37;;;;;;;14.17;8.10;;;4.40;91.50;;;;;;5014133;28;20841;-67
2022/03/04 01:01:04;;;;;;;14.27;8.20;;;4.40;91.50;;;;;;5014105;28;20993;-68
2022/03/04 01:03:30;;;;;;;14.47;8.30;;;4.40;91.50;;;;;;5031526;28;20848;-68
2022/03/04 01:05:57;;;;;;;11.90;6.00;;;4.40;91.60;;;;;;5031661;28;20460;-68
2022/03/04 01:08:22;;;;;;;13.30;8.40;;;4.40;91.60;;;;;;5031948;28;20467;-68
2022/03/04 01:10:48;;;;;;;12.80;7.37;;;4.40;91.50;;;;;;5013047;28;20485;-70
2022/03/04 01:13:14;;;;;;;10.97;7.60;;;4.30;91.60;;;;;;5011015;28;20228;-68
2022/03/04 01:15:40;;;;;;;17.77;7.87;;;4.30;91.40;;;;;;5016121;28;20315;-68
2022/03/04 01:18:05;;;;;;;15.50;7.97;;;4.30;91.40;;;;;;4996651;28;20224;-68
2022/03/04 01:20:31;;;;;;;12.67;8.03;;;4.30;91.50;;;;;;5005120;28;20224;-67
2022/03/04 01:23:00;;;;;;;16.40;8.30;;;4.30;91.40;;;;;;5008531;28;20221;-68
2022/03/04 01:25:26;;;;;;;16.00;8.17;;;4.30;91.50;;;;;;5027511;28;20692;-70
2022/03/04 01:27:52;;;;;;;14.50;8.53;;;4.20;91.50;;;;;;5030816;28;20521;-67
2022/03/04 01:30:18;;;;;;;10.20;7.07;;;4.20;91.50;;;;;;5014222;28;20951;-68
2022/03/04 01:32:45;;;;;;;13.20;7.50;;;4.20;91.50;;;;;;5011662;28;20205;-68
2022/03/04 01:35:11;;;;;;;13.60;8.37;;;4.20;91.40;;;;;;5031482;28;20454;-68
2022/03/04 01:37:38;;;;;;;17.03;8.40;;;4.20;91.30;;;;;;5013843;28;20474;-69
2022/03/04 01:40:06;;;;;;;14.20;7.33;;;4.00;91.70;;;;;;5030727;28;20955;-67
2022/03/04 01:42:32;;;;;;;13.57;7.23;;;4.00;91.90;;;;;;5017117;28;20526;-67
2022/03/04 01:44:58;;;;;;;10.70;6.47;;;4.00;91.80;;;;;;5026196;28;20896;-68
2022/03/04 01:47:23;;;;;;;21.47;8.73;;;4.00;91.60;;;;;;5018030;28;20208;-68
2022/03/04 01:49:49;;;;;;;15.70;7.73;;;3.90;91.80;;;;;;5026872;28;20463;-68
2022/03/04 01:52:16;;;;;;;13.77;8.07;;;3.90;91.70;;;;;;4995624;28;20696;-68
2022/03/04 01:54:42;;;;;;;11.73;7.53;;;3.80;91.80;;;;;;5011379;28;20510;-68
2022/03/04 01:57:08;;;;;;;12.00;6.70;;;3.80;91.80;;;;;;5029084;28;20459;-67
2022/03/04 01:59:33;;;;;;;14.93;7.83;;;3.80;91.50;;;;;;4996374;28;20460;-67
2022/03/04 02:01:59;;;;;;;14.40;7.83;;;3.80;91.60;;;;;;5012116;28;20220;-67
2022/03/04 02:04:25;;;;;;;16.03;8.30;;;3.80;91.80;;;;;;5030800;28;20258;-68
2022/03/04 02:06:52;;;;;;;14.57;7.93;;;3.90;91.80;;;;;;5030624;28;20217;-67
2022/03/04 02:09:18;;;;;;;12.97;7.70;;;3.80;91.60;;;;;;5009190;28;20518;-67
2022/03/04 02:11:44;;;;;;;15.23;8.70;;;3.80;91.90;;;;;;5029485;28;20967;-67
2022/03/04 02:14:11;;;;;;;20.40;9.43;;;3.80;91.90;;;;;;5029102;28;20499;-67
2022/03/04 02:16:50;;;;;;;13.83;8.87;;;3.80;91.80;;;;;;5033419;28;20442;-68
2022/03/04 02:19:17;;;;;;;13.50;7.70;;;3.80;91.80;;;;;;5006256;28;20501;-68
2022/03/04 02:22:00;;;;;;;15.33;7.93;;;3.80;91.80;;;;;;4993367;28;20991;-66
2022/03/04 02:24:28;;;;;;;13.97;7.90;;;3.80;91.60;;;;;;5007175;28;20459;-69
2022/03/04 02:26:56;;;;;;;18.97;8.67;;;3.70;91.60;;;;;;5029726;28;20451;-69
2022/03/04 02:29:23;;;;;;;20.80;9.30;;;3.80;91.80;;;;;;5012373;28;20444;-68
2022/03/04 02:31:49;;;;;;;13.83;7.67;;;3.70;91.80;;;;;;5026426;28;20455;-69
2022/03/04 02:34:16;;;;;;;14.77;8.23;;;3.70;91.80;;;;;;5029413;28;20455;-68
2022/03/04 02:36:42;;;;;;;16.53;8.20;;;3.70;91.80;;;;;;5030287;28;20443;-68
2022/03/04 02:39:08;;;;;;;17.07;8.57;;;3.80;92.00;;;;;;5008436;28;20829;-68
2022/03/04 02:41:35;;;;;;;9.87;6.57;;;3.70;92.10;;;;;;4997071;28;20456;-68
2022/03/04 02:44:08;;;;;;;14.70;8.37;;;3.70;92.20;;;;;;5028493;28;20600;-67
2022/03/04 02:46:34;;;;;;;16.57;9.00;;;3.60;92.00;;;;;;5008716;28;20460;-67
2022/03/04 02:49:00;;;;;;;16.53;8.37;;;3.60;91.90;;;;;;5029478;28;20498;-67
2022/03/04 02:51:26;;;;;;;15.13;8.30;;;3.60;92.10;;;;;;5012393;28;21050;-67
2022/03/04 02:53:52;;;;;;;18.70;8.70;;;3.60;92.40;;;;;;5000771;28;20465;-67
2022/03/04 02:56:18;;;;;;;16.67;8.30;;;3.60;92.20;;;;;;5025693;28;20448;-67
2022/03/04 02:58:44;;;;;;;15.80;9.07;;;3.60;91.90;;;;;;5003374;28;20301;-67
2022/03/04 03:01:10;;;;;;;15.80;9.10;;;3.50;92.10;;;;;;5025794;28;20460;-68
2022/03/04 03:03:36;;;;;;;13.30;7.53;;;3.50;92.00;;;;;;5000992;28;20460;-67
2022/03/04 03:06:02;;;;;;;15.03;8.17;;;3.50;91.90;;;;;;5010203;28;20459;-68
2022/03/04 03:08:29;;;;;;;14.77;7.77;;;3.50;92.00;;;;;;5025344;28;20221;-68
2022/03/04 03:10:55;;;;;;;14.07;7.80;;;3.50;92.00;;;;;;4972548;28;20503;-68
2022/03/04 03:13:21;;;;;;;17.33;8.10;;;3.50;92.00;;;;;;4992879;28;20987;-67
2022/03/04 03:15:48;;;;;;;12.60;8.87;;;3.40;92.10;;;;;;4992997;28;20468;-67
2022/03/04 03:18:13;;;;;;;14.80;8.27;;;3.50;92.10;;;;;;5009164;28;20477;-67
2022/03/04 03:20:39;;;;;;;19.13;10.47;;;3.40;92.10;;;;;;5027442;28;20999;-67
2022/03/04 03:23:05;;;;;;;18.50;9.77;;;3.40;92.00;;;;;;5013848;28;20734;-68
2022/03/04 03:25:30;;;;;;;18.27;8.70;;;3.40;92.10;;;;;;5044955;28;20231;-69
2022/03/04 03:27:56;;;;;;;12.67;8.00;;;3.40;92.30;;;;;;5029266;28;20221;-68
2022/03/04 03:30:22;;;;;;;17.33;8.33;;;3.40;92.30;;;;;;5026751;28;21087;-67
2022/03/04 03:32:48;;;;;;;15.60;8.23;;;3.40;92.30;;;;;;4991987;28;20213;-67
2022/03/04 03:35:13;;;;;;;15.10;8.93;;;3.40;92.50;;;;;;4991656;28;20220;-68
2022/03/04 03:37:39;;;;;;;19.67;9.40;;;3.40;92.30;;;;;;5009727;28;20251;-68
2022/03/04 03:40:07;;;;;;;17.27;8.30;;;3.40;92.30;;;;;;4991525;28;20578;-68
2022/03/04 03:42:33;;;;;;;14.73;8.67;;;3.40;92.30;;;;;;4992410;28;20205;-68
2022/03/04 03:44:59;;;;;;;14.90;8.40;;;3.40;92.50;;;;;;4992020;28;20453;-67
2022/03/04 03:47:25;;;;;;;15.00;8.80;;;3.30;92.10;;;;;;5025391;28;20531;-68
2022/03/04 03:49:51;;;;;;;20.37;9.10;;;3.30;92.40;;;;;;4991070;28;20244;-67
2022/03/04 03:52:16;;;;;;;15.80;8.90;;;3.30;92.40;;;;;;4992566;28;20697;-66
2022/03/04 03:54:42;;;;;;;18.33;8.60;;;3.30;92.50;;;;;;4976603;28;20339;-67
2022/03/04 03:57:10;;;;;;;15.10;9.00;;;3.30;92.50;;;;;;5024225;28;20228;-67
2022/03/04 03:59:36;;;;;;;17.40;8.83;;;3.30;92.40;;;;;;5009676;28;20302;-67
2022/03/04 04:02:02;;;;;;;18.43;9.80;;;3.30;92.40;;;;;;5010311;28;20456;-68
2022/03/04 04:04:33;;;;;;;15.17;8.37;;;3.30;92.50;;;;;;5008130;28;20456;-68
2022/03/04 04:07:04;;;;;;;20.27;8.90;;;3.20;92.50;;;;;;5004014;28;20244;-67
2022/03/04 04:09:30;;;;;;;20.17;10.40;;;3.20;92.40;;;;;;4993999;28;20598;-68
2022/03/04 04:11:56;;;;;;;21.77;9.67;;;3.20;92.40;;;;;;4991494;28;20468;-69
2022/03/04 04:14:22;;;;;;;19.20;10.23;;;3.20;92.50;;;;;;4993219;28;20538;-67
2022/03/04 04:16:48;;;;;;;23.03;8.90;;;3.20;92.40;;;;;;5008684;28;20213;-70
2022/03/04 04:19:13;;;;;;;19.57;9.10;;;3.20;92.30;;;;;;5005127;28;20716;-67
2022/03/04 04:21:39;;;;;;;19.23;9.80;;;3.20;92.30;;;;;;5007223;28;20839;-67
2022/03/04 04:24:05;;;;;;;15.67;9.50;;;3.10;92.40;;;;;;5013609;28;20224;-68
2022/03/04 04:26:31;;;;;;;13.07;9.07;;;3.10;92.40;;;;;;5011612;28;20308;-70
2022/03/04 04:28:58;;;;;;;17.53;9.10;;;3.10;92.30;;;;;;5023904;28;20460;-68
2022/03/04 04:31:24;;;;;;;12.47;7.97;;;3.10;92.40;;;;;;5008846;28;20470;-67
2022/03/04 04:33:50;;;;;;;20.17;9.80;;;3.10;92.60;;;;;;5014836;28;20550;-68
2022/03/04 04:36:16;;;;;;;16.73;8.53;;;3.10;92.50;;;;;;5027703;28;20536;-67
2022/03/04 04:38:42;;;;;;;14.60;8.03;;;3.10;92.50;;;;;;5023672;28;20522;-68
2022/03/04 04:41:08;;;;;;;20.47;10.27;;;3.10;92.60;;;;;;5013120;28;20552;-70
2022/03/04 04:43:34;;;;;;;16.97;8.63;;;3.10;92.60;;;;;;5012798;28;20213;-69
2022/03/04 04:46:00;;;;;;;16.17;8.63;;;3.10;92.70;;;;;;5008181;28;20224;-67
2022/03/04 04:48:26;;;;;;;17.80;9.20;;;3.10;92.50;;;;;;5031946;28;20460;-67
2022/03/04 04:50:52;;;;;;;18.63;8.70;;;3.10;92.70;;;;;;5031606;28;20467;-67
2022/03/04 04:53:17;;;;;;;17.70;9.00;;;3.10;92.70;;;;;;5013982;28;20770;-68
2022/03/04 04:55:43;;;;;;;18.00;9.90;;;3.10;92.80;;;;;;5048350;28;20211;-67
2022/03/04 04:58:10;;;;;;;15.40;9.37;;;3.10;92.70;;;;;;5022106;28;20225;-67
2022/03/04 05:00:35;;;;;;;16.80;9.20;;;3.10;92.70;;;;;;5014272;28;20223;-67
2022/03/04 05:03:01;;;;;;;16.93;9.53;;;3.00;92.60;;;;;;5030982;28;20463;-67
2022/03/04 05:05:27;;;;;;;13.40;8.07;;;3.00;92.60;;;;;;5028468;28;20213;-67
2022/03/04 05:07:53;;;;;;;16.57;8.97;;;3.00;92.60;;;;;;5014135;28;20485;-66
2022/03/04 05:10:18;;;;;;;16.50;8.60;;;3.00;92.50;;;;;;4997798;28;20228;-67
2022/03/04 05:12:44;;;;;;;19.00;9.47;;;3.00;92.60;;;;;;5031093;28;20224;-69
2022/03/04 05:15:10;;;;;;;15.23;8.77;;;3.00;92.60;;;;;;5041179;28;20311;-69
2022/03/04 05:17:36;;;;;;;13.10;7.77;;;2.80;92.50;;;;;;5027648;28;20225;-67
2022/03/04 05:20:03;;;;;;;17.90;8.53;;;2.80;92.70;;;;;;5031217;28;20989;-67
2022/03/04 05:22:28;;;;;;;17.20;8.80;;;2.80;92.80;;;;;;5030670;28;20504;-69
2022/03/04 05:24:54;;;;;;;18.20;9.40;;;2.70;92.40;;;;;;5041431;28;20541;-67
2022/03/04 05:27:20;;;;;;;21.60;9.53;;;2.70;92.70;;;;;;5006977;28;20248;-68
2022/03/04 05:29:46;;;;;;;23.93;9.60;;;2.80;92.80;;;;;;5031540;28;20307;-68
2022/03/04 05:32:11;;;;;;;23.63;9.80;;;2.70;93.00;;;;;;5035577;28;20246;-68
2022/03/04 05:34:37;;;;;;;16.40;9.60;;;2.70;92.70;;;;;;5004059;28;20221;-68
2022/03/04 05:37:04;;;;;;;16.23;9.43;;;2.60;92.80;;;;;;5022980;28;20230;-67
2022/03/04 05:39:30;;;;;;;19.10;11.13;;;2.70;92.90;;;;;;5000139;28;20225;-68
2022/03/04 05:41:55;;;;;;;16.20;9.20;;;2.70;92.90;;;;;;5018522;28;20471;-68
2022/03/04 05:44:21;;;;;;;18.93;9.77;;;2.70;92.80;;;;;;5025630;28;20216;-68
2022/03/04 05:46:47;;;;;;;22.20;9.90;;;2.70;92.70;;;;;;5009888;28;20220;-67
2022/03/04 05:49:12;;;;;;;19.10;9.27;;;2.70;92.70;;;;;;5009627;28;20209;-68
2022/03/04 05:51:38;;;;;;;18.50;8.60;;;2.70;92.70;;;;;;5008241;28;20221;-68
2022/03/04 05:54:04;;;;;;;14.90;8.37;;;2.60;92.80;;;;;;4994440;28;20228;-68
2022/03/04 05:56:29;;;;;;;21.10;10.47;;;2.60;92.90;;;;;;5027224;28;20208;-69
2022/03/04 05:58:55;;;;;;;22.47;10.40;;;2.40;92.90;;;;;;5025881;28;20244;-66
2022/03/04 06:01:21;;;;;;;21.93;9.93;;;2.40;92.80;;;;;;5025537;28;20685;-68
2022/03/04 06:03:47;;;;;;;16.90;10.13;;;2.50;93.30;;;;;;5025814;28;20232;-66
2022/03/04 06:06:13;;;;;;;17.60;9.80;;;2.50;93.30;;;;;;5010036;28;20303;-68
2022/03/04 06:08:40;;;;;;;21.37;10.30;;;2.50;93.20;;;;;;5042683;28;20243;-67
2022/03/04 06:11:10;;;;;;;17.63;10.07;;;2.50;93.10;;;;;;5012763;28;20534;-68
2022/03/04 06:13:36;;;;;;;16.50;10.10;;;2.50;93.10;;;;;;5041520;28;20450;-68
2022/03/04 06:16:03;;;;;;;17.70;9.17;;;2.50;93.30;;;;;;5032660;28;20494;-69
2022/03/04 06:18:29;;;;;;;20.87;11.37;;;2.50;93.10;;;;;;5022163;28;20531;-69
2022/03/04 06:20:54;;;;;;;17.23;9.87;;;2.50;93.10;;;;;;5032881;28;20546;-69
2022/03/04 06:23:21;;;;;;;17.13;10.27;;;2.50;93.10;;;;;;5035072;28;20219;-69
2022/03/04 06:25:47;;;;;;;17.97;10.80;;;2.50;93.10;;;;;;4997684;28;20467;-70
2022/03/04 06:28:12;;;;;;;22.90;10.87;;;2.40;93.10;;;;;;5009663;28;20490;-71
2022/03/04 06:30:38;;;;;;;21.63;9.73;;;2.40;93.10;;;;;;5015918;28;20467;-69
2022/03/04 06:35:50;;;;;;;18.40;8.80;;;2.30;93.30;;;;;;5023685;28;20595;-68
2022/03/04 06:38:17;;;;;;;21.27;8.90;;;2.30;93.80;;;;;;5029619;28;20467;-69
2022/03/04 06:40:43;;;;;;;18.30;9.07;;;2.30;94.00;;;;;;5030494;28;20223;-69
2022/03/04 06:43:09;;;;;;;17.20;9.80;;;2.30;94.10;;;;;;5009149;28;20460;-69
2022/03/04 06:45:37;;;;;;;17.67;10.20;;;2.40;93.90;;;;;;5008742;28;20463;-70
2022/03/04 06:48:03;;;;;;;19.77;10.67;;;2.40;93.90;;;;;;5005868;28;20499;-69
2022/03/04 06:50:29;;;;;;;16.40;9.60;;;2.50;94.00;;;;;;5025819;28;20468;-70
2022/03/04 06:52:55;;;;;;;17.13;8.73;;;2.50;94.00;;;;;;5025565;28;20479;-68
2022/03/04 06:55:21;;;;;;;21.67;9.60;;;2.50;94.20;;;;;;4995031;28;20227;-69
2022/03/04 06:57:50;;;;;;;18.73;9.67;;;2.60;94.20;;;;;;5004759;28;20586;-69
2022/03/04 07:00:16;;;;;;;16.87;9.17;;;2.60;94.30;;;;;;5017781;28;20224;-69
2022/03/04 07:02:41;;;;;;;17.87;9.27;;;2.60;94.20;;;;;;5004801;28;20457;-70
2022/03/04 07:05:08;;;;;;;17.87;8.57;;;2.60;94.30;;;;;;5007905;28;20525;-70
2022/03/04 07:07:34;;;;;;;18.50;9.83;;;2.60;94.20;;;;;;5030502;28;20216;-70
2022/03/04 07:10:00;;;;;;;18.30;11.10;;;2.60;94.30;;;;;;5021408;28;20455;-70
2022/03/04 07:12:26;;;;;;;22.60;10.63;;;2.60;94.30;;;;;;5022706;28;20491;-70
2022/03/04 07:14:52;;;;;;;24.03;10.50;;;2.60;94.30;;;;;;5022141;28;20491;-70
2022/03/04 07:17:18;;;;;;;23.20;11.50;;;2.60;94.30;;;;;;5026470;28;20250;-68
2022/03/04 07:19:44;;;;;;;21.13;10.03;;;2.70;94.50;;;;;;5025790;28;20470;-72
2022/03/04 07:22:10;;;;;;;17.00;8.77;;;2.70;94.70;;;;;;5012228;28;20451;-69
2022/03/04 07:24:36;;;;;;;18.63;10.30;;;2.70;94.80;;;;;;4984543;28;20220;-69
2022/03/04 07:27:02;;;;;;;17.63;10.00;;;2.70;94.70;;;;;;5016134;28;20228;-70
2022/03/04 07:29:28;;;;;;;17.23;9.27;;;2.70;94.80;;;;;;5004551;28;20302;-69
2022/03/04 07:31:54;;;;;;;16.63;10.03;;;2.80;95.10;;;;;;5024492;28;20225;-69
2022/03/04 07:34:21;;;;;;;20.33;10.20;;;2.80;95.40;;;;;;5002301;28;20456;-69
2022/03/04 07:36:47;;;;;;;21.17;10.00;;;2.80;95.50;;;;;;5009227;28;21014;-71
2022/03/04 07:39:13;;;;;;;17.50;9.80;;;2.80;95.40;;;;;;5025028;28;20502;-69
2022/03/04 07:41:38;;;;;;;23.40;10.40;;;2.90;95.60;;;;;;5023674;28;20225;-69
2022/03/04 07:44:05;;;;;;;18.30;10.77;;;2.90;95.90;;;;;;5024147;28;20228;-71
2022/03/04 07:46:31;;;;;;;20.27;10.03;;;3.00;96.10;;;;;;5025031;28;20799;-72
2022/03/04 07:48:57;;;;;;;15.67;9.73;;;3.00;95.90;;;;;;4998209;28;20535;-70
2022/03/04 07:51:22;;;;;;;18.50;9.87;;;3.00;96.10;;;;;;5018431;28;20229;-71
2022/03/04 07:53:48;;;;;;;33.60;11.47;;;3.10;96.50;;;;;;5006714;28;21004;-67
2022/03/04 07:56:14;;;;;;;22.67;11.10;;;3.10;96.50;;;;;;5022949;28;20228;-70
2022/03/04 07:58:39;;;;;;;21.17;12.00;;;3.10;96.90;;;;;;4993999;28;20228;-71
2022/03/04 08:01:05;;;;;;;19.27;11.60;;;3.20;97.20;;;;;;5030123;28;20225;-69
2022/03/04 08:03:31;;;;;;;17.37;9.23;;;3.20;97.10;;;;;;5011102;28;20217;-69
2022/03/04 08:05:57;;;;;;;19.60;11.47;;;3.20;97.10;;;;;;5013050;28;20307;-69
2022/03/04 08:08:23;;;;;;;23.63;11.40;;;3.30;97.10;;;;;;5031084;28;20589;-70
2022/03/04 08:10:49;;;;;;;22.67;10.73;;;3.30;97.10;;;;;;5011197;28;20225;-68
2022/03/04 08:13:14;;;;;;;23.10;11.13;;;3.40;97.20;;;;;;5019607;28;20265;-68
2022/03/04 08:15:41;;;;;;;16.30;10.80;;;3.40;97.20;;;;;;5013310;28;20228;-71
2022/03/04 08:18:07;;;;;;;21.23;10.70;;;3.40;97.20;;;;;;5028807;28;20216;-69
2022/03/04 08:20:33;;;;;;;21.63;12.00;;;3.50;97.70;;;;;;5013404;28;20474;-69
2022/03/04 08:22:59;;;;;;;24.10;11.77;;;3.50;97.70;;;;;;5031326;28;20231;-69
2022/03/04 08:25:25;;;;;;;21.63;10.57;;;3.50;97.50;;;;;;5013212;28;20941;-70
2022/03/04 08:27:51;;;;;;;24.97;10.90;;;3.60;97.40;;;;;;5029917;28;20534;-70
2022/03/04 08:30:16;;;;;;;24.10;10.80;;;3.60;97.50;;;;;;5027960;28;20238;-70
2022/03/04 08:32:42;;;;;;;26.43;12.63;;;3.60;97.60;;;;;;5033601;28;20351;-70
2022/03/04 08:35:08;;;;;;;27.10;12.00;;;3.70;97.50;;;;;;5029954;28;20213;-69
2022/03/04 08:37:34;;;;;;;22.07;12.63;;;3.70;97.60;;;;;;5014794;28;20231;-71
2022/03/04 08:40:00;;;;;;;17.70;10.37;;;3.80;97.70;;;;;;5014360;28;20456;-69
2022/03/04 08:42:26;;;;;;;22.50;12.97;;;3.90;97.90;;;;;;5029126;28;20224;-69
2022/03/04 08:44:53;;;;;;;23.07;11.80;;;3.90;97.70;;;;;;5008745;28;20447;-69
2022/03/04 08:47:19;;;;;;;26.20;12.23;;;4.00;97.70;;;;;;5018396;28;20307;-70
2022/03/04 08:49:45;;;;;;;28.30;14.57;;;4.00;97.80;;;;;;5032358;28;20536;-70
2022/03/04 08:52:11;;;;;;;27.40;14.10;;;4.10;97.90;;;;;;5019686;28;20528;-70
2022/03/04 08:54:37;;;;;;;37.00;14.70;;;4.10;98.00;;;;;;5028296;28;20262;-69
2022/03/04 08:57:03;;;;;;;30.80;14.20;;;4.20;98.20;;;;;;5031139;28;20639;-69
2022/03/04 08:59:29;;;;;;;30.07;15.27;;;4.30;98.00;;;;;;5030813;28;20472;-69
2022/03/04 09:01:56;;;;;;;30.20;13.63;;;4.30;98.10;;;;;;5037608;28;20464;-69
2022/03/04 09:04:22;;;;;;;20.30;12.17;;;4.40;98.10;;;;;;5031161;28;20459;-70
2022/03/04 09:06:48;;;;;;;31.63;15.90;;;4.40;97.70;;;;;;5028575;28;20462;-69
2022/03/04 09:09:14;;;;;;;42.57;21.10;;;4.50;97.90;;;;;;5035994;28;20525;-69
2022/03/04 09:11:40;;;;;;;35.10;20.50;;;4.60;97.70;;;;;;5008603;28;20254;-70
2022/03/04 09:14:06;;;;;;;30.50;18.47;;;4.50;97.10;;;;;;5027578;28;20451;-70
2022/03/04 09:16:32;;;;;;;38.10;21.77;;;4.60;97.60;;;;;;5033998;28;20454;-67
2022/03/04 09:18:58;;;;;;;30.93;16.30;;;4.60;97.50;;;;;;5010076;28;20479;-69
2022/03/04 09:21:23;;;;;;;34.70;18.37;;;4.60;97.50;;;;;;5020699;28;20228;-68
2022/03/04 09:23:49;;;;;;;82.00;31.47;;;4.70;97.80;;;;;;5019108;28;20459;-69
2022/03/04 09:26:15;;;;;;;81.93;32.13;;;4.80;97.70;;;;;;5030872;28;20659;-69
2022/03/04 09:28:41;;;;;;;56.20;25.10;;;4.80;97.50;;;;;;5028442;28;20228;-70
2022/03/04 09:31:06;;;;;;;58.87;25.50;;;4.90;97.40;;;;;;5017722;28;20232;-70
2022/03/04 09:33:32;;;;;;;57.33;24.67;;;4.90;97.40;;;;;;5007786;28;20303;-68
2022/03/04 09:36:00;;;;;;;42.80;22.67;;;5.00;97.40;;;;;;5009953;28;20290;-69
2022/03/04 09:38:26;;;;;;;41.67;20.93;;;5.00;97.50;;;;;;5009011;28;20472;-69
2022/03/04 09:40:52;;;;;;;33.50;17.33;;;5.10;97.60;;;;;;5020433;28;20970;-69
2022/03/04 09:43:21;;;;;;;27.90;15.47;;;5.20;97.90;;;;;;5024936;28;20447;-69
2022/03/04 09:45:47;;;;;;;30.00;15.10;;;5.20;97.70;;;;;;5030601;28;20216;-70
2022/03/04 09:48:14;;;;;;;28.80;15.13;;;5.30;97.80;;;;;;5020745;28;20482;-71
2022/03/04 09:50:43;;;;;;;25.77;14.47;;;5.40;97.70;;;;;;5019718;28;20458;-70
2022/03/04 09:53:11;;;;;;;36.67;19.23;;;5.40;97.80;;;;;;5012797;28;20527;-68
2022/03/04 09:55:38;;;;;;;36.80;21.37;;;5.50;97.90;;;;;;5011275;28;20463;-69
2022/03/04 09:58:11;;;;;;;33.13;17.00;;;5.50;97.70;;;;;;5006320;28;20513;-70
2022/03/04 10:00:38;;;;;;;24.07;14.50;;;5.60;97.60;;;;;;5034572;28;20823;-69
2022/03/04 10:03:05;;;;;;;31.67;16.87;;;5.60;97.60;;;;;;5009896;28;20556;-71
2022/03/04 10:05:30;;;;;;;25.20;13.90;;;5.70;97.40;;;;;;5020767;28;20464;-68
2022/03/04 10:07:56;;;;;;;25.23;13.70;;;5.70;97.40;;;;;;5027046;28;20465;-69
2022/03/04 10:10:22;;;;;;;30.73;14.53;;;5.70;97.10;;;;;;5009084;28;20225;-70
2022/03/04 10:12:48;;;;;;;30.10;14.23;;;5.70;96.90;;;;;;5009600;28;20225;-70
2022/03/04 10:15:14;;;;;;;30.37;14.00;;;5.70;97.20;;;;;;5007784;28;20216;-70
2022/03/04 10:17:41;;;;;;;31.20;14.03;;;5.90;97.40;;;;;;5010551;28;20526;-71
2022/03/04 10:20:09;;;;;;;25.60;13.50;;;6.00;97.50;;;;;;5015510;28;20300;-70
2022/03/04 10:22:39;;;;;;;24.80;13.83;;;6.00;97.50;;;;;;5024590;28;20469;-69
2022/03/04 10:25:17;;;;;;;27.40;14.97;;;6.00;96.60;;;;;;5005686;28;20462;-71
2022/03/04 10:27:43;;;;;;;26.57;14.63;;;6.00;97.50;;;;;;5025816;28;20473;-69
2022/03/04 10:30:09;;;;;;;27.13;14.57;;;6.10;97.50;;;;;;5008026;28;20489;-69
2022/03/04 10:32:35;;;;;;;26.90;14.43;;;6.10;97.30;;;;;;5017492;28;20528;-69
2022/03/04 10:35:10;;;;;;;30.30;15.97;;;6.20;97.50;;;;;;5025653;28;20567;-71
2022/03/04 10:37:52;;;;;;;26.57;15.77;;;6.30;97.60;;;;;;5005115;28;20314;-69
2022/03/04 10:40:25;;;;;;;32.43;16.33;;;6.40;97.30;;;;;;4998942;28;20892;-70
2022/03/04 10:43:01;;;;;;;30.57;16.07;;;6.40;97.00;;;;;;5027732;28;21035;-70
2022/03/04 10:45:35;;;;;;;33.97;17.40;;;6.50;97.40;;;;;;5008720;28;20533;-70
2022/03/04 10:48:23;;;;;;;34.30;16.50;;;6.50;97.20;;;;;;5021034;28;20546;-69
2022/03/04 10:50:55;;;;;;;31.27;16.17;;;6.60;97.40;;;;;;5005772;28;20467;-68
2022/03/04 10:53:33;;;;;;;29.00;14.50;;;6.70;97.30;;;;;;4998233;28;21019;-71
2022/03/04 10:56:10;;;;;;;29.10;15.97;;;6.80;97.20;;;;;;5020716;28;20451;-69
2022/03/04 10:58:39;;;;;;;33.77;17.93;;;7.00;97.60;;;;;;5018469;28;20982;-69
2022/03/04 11:01:16;;;;;;;31.83;16.87;;;7.20;97.70;;;;;;5004463;28;20475;-69
2022/03/04 11:03:42;;;;;;;29.77;16.17;;;7.30;97.70;;;;;;5011474;28;20975;-71
2022/03/04 11:06:10;;;;;;;32.47;15.17;;;7.40;97.50;;;;;;5004275;28;20573;-71
2022/03/04 11:08:36;;;;;;;33.07;17.10;;;7.40;97.20;;;;;;5005423;28;20220;-72
2022/03/04 11:11:03;;;;;;;30.43;16.00;;;7.30;96.60;;;;;;5008328;28;20470;-70
2022/03/04 11:13:35;;;;;;;26.67;15.13;;;7.30;96.80;;;;;;5004644;28;20224;-69
2022/03/04 11:16:03;;;;;;;27.73;14.13;;;7.40;97.20;;;;;;5007245;28;20474;-69
2022/03/04 11:18:29;;;;;;;27.87;16.30;;;7.50;97.10;;;;;;5009100;28;20995;-69
2022/03/04 11:20:57;;;;;;;27.90;15.30;;;7.50;96.30;;;;;;5004367;28;20459;-70
2022/03/04 11:23:31;;;;;;;30.70;15.30;;;7.50;96.20;;;;;;5022096;28;20221;-70
2022/03/04 11:25:59;;;;;;;32.53;16.17;;;7.40;95.90;;;;;;5010713;28;20474;-72
2022/03/04 11:28:49;;;;;;;30.20;15.67;;;7.50;96.50;;;;;;5019822;28;20829;-70
2022/03/04 11:31:23;;;;;;;26.93;15.13;;;7.60;96.10;;;;;;5014368;28;20460;-70
2022/03/04 11:34:00;;;;;;;27.90;15.40;;;7.70;96.70;;;;;;5020954;28;20509;-71
2022/03/04 11:36:32;;;;;;;26.70;13.60;;;7.80;96.90;;;;;;5007943;28;20462;-69
2022/03/04 11:39:18;;;;;;;29.60;15.93;;;8.10;96.90;;;;;;5025691;28;20483;-69
2022/03/04 11:41:46;;;;;;;26.97;15.57;;;8.20;96.30;;;;;;5000262;28;20467;-69
2022/03/04 11:44:22;;;;;;;26.20;15.77;;;8.20;95.50;;;;;;5025293;28;20455;-69
2022/03/04 11:47:04;;;;;;;34.63;16.53;;;8.20;95.70;;;;;;5012514;28;20450;-69
2022/03/04 11:49:48;;;;;;;30.13;15.77;;;8.20;95.00;;;;;;5017109;28;20495;-69
2022/03/04 11:52:24;;;;;;;27.10;14.53;;;8.00;95.20;;;;;;5007678;28;20548;-70
2022/03/04 11:54:49;;;;;;;31.23;14.60;;;8.10;95.30;;;;;;5001494;28;20542;-69
2022/03/04 11:57:21;;;;;;;28.30;15.57;;;8.10;95.20;;;;;;5021974;28;20875;-69
2022/03/04 12:00:20;;;;;;;28.37;14.50;;;8.30;95.30;;;;;;5024688;28;20220;-69
2022/03/04 12:02:46;;;;;;;22.90;13.70;;;8.40;94.80;;;;;;5009941;28;20470;-70
2022/03/04 12:07:42;;;;;;;27.93;14.57;;;8.40;94.00;;;;;;5010260;28;20460;-70
2022/03/04 12:10:13;;;;;;;25.10;14.40;;;8.50;93.90;;;;;;5021286;28;20880;-68
2022/03/04 12:12:40;;;;;;;25.70;13.70;;;8.60;93.70;;;;;;5017738;28;20459;-69
2022/03/04 12:15:18;;;;;;;26.10;13.20;;;8.50;94.20;;;;;;5031444;28;20439;-70
2022/03/04 12:18:05;;;;;;;25.60;13.20;;;8.60;93.80;;;;;;5030261;28;20851;-71
2022/03/04 12:20:40;;;;;;;27.67;13.93;;;8.60;93.90;;;;;;5011175;28;20458;-68
2022/03/04 12:23:14;;;;;;;28.67;14.63;;;8.80;93.40;;;;;;5026864;28;20829;-68
2022/03/04 12:25:55;;;;;;;28.10;13.73;;;8.80;93.00;;;;;;4995305;28;20454;-70
2022/03/04 12:28:23;;;;;;;24.77;13.03;;;8.80;93.20;;;;;;5029541;28;20954;-72
2022/03/04 12:31:15;;;;;;;26.00;14.60;;;8.70;93.30;;;;;;5020633;28;20455;-71
2022/03/04 12:33:43;;;;;;;25.53;15.07;;;8.80;93.50;;;;;;5019261;28;20459;-69
2022/03/04 12:36:12;;;;;;;27.27;14.87;;;8.80;92.70;;;;;;5016246;28;20446;-71
2022/03/04 12:38:47;;;;;;;29.57;14.30;;;8.70;92.70;;;;;;5015074;28;20555;-69
2022/03/04 12:41:20;;;;;;;22.57;14.07;;;8.70;92.80;;;;;;5005715;28;21041;-71
2022/03/04 12:43:52;;;;;;;25.50;14.53;;;8.80;92.50;;;;;;5026466;28;20980;-71
2022/03/04 12:46:21;;;;;;;25.73;14.83;;;8.80;93.10;;;;;;5034540;28;20510;-72
2022/03/04 12:48:48;;;;;;;22.83;13.70;;;9.00;93.20;;;;;;5013046;28;20487;-69
2022/03/04 12:51:25;;;;;;;31.80;16.37;;;9.10;93.30;;;;;;4998917;28;20494;-69